Time;durP1;ratioP1;P1;durP2;ratioP2;P2;SDS_P1;SDS_P2;PMS_P1;PMS_P2;Temp;Humidity;BMP_temperature;BMP_pressure;BME280_temperature;BME280_humidity;BME280_pressure;Samples;Min_cycle;Max_cycle;Signal;HPM_P1;HPM_P2
2023/12/29 00:02:20;;;;;;;;;;;179.50;2252.80;;;;;;4959383;28;19921;-80
2023/12/29 00:04:46;;;;;;;;;;;179.50;2252.80;;;;;;4959105;28;19913;-80
2023/12/29 00:07:12;;;;;;;;;;;179.60;2252.80;;;;;;4959383;28;19945;-80
2023/12/29 00:09:40;;;;;;;;;;;179.70;2252.80;;;;;;4959316;28;19918;-80
2023/12/29 00:12:06;;;;;;;;;;;179.90;2252.80;;;;;;4959212;28;19906;-80
2023/12/29 00:14:32;;;;;;;;;;;179.80;2252.80;;;;;;4976015;28;19914;-79
2023/12/29 00:16:58;;;;;;;;;;;179.80;2252.80;;;;;;4976712;28;19914;-81
2023/12/29 00:19:23;;;;;;;;;;;179.90;2252.80;;;;;;4976748;28;19906;-80
2023/12/29 00:21:49;;;;;;;;;;;179.90;2252.80;;;;;;4976716;28;19906;-79
2023/12/29 00:24:14;;;;;;;;;;;179.90;2252.80;;;;;;4977224;28;19921;-79
2023/12/29 00:26:40;;;;;;;;;;;179.60;2252.80;;;;;;4992379;28;19929;-79
2023/12/29 00:29:06;;;;;;;;;;;179.60;2252.80;;;;;;4999762;28;19936;-79
2023/12/29 00:31:32;;;;;;;;;;;179.50;2252.80;;;;;;4985890;28;19906;-80
2023/12/29 00:33:57;;;;;;;;;;;179.30;2252.80;;;;;;4976012;28;19918;-79
2023/12/29 00:36:24;;;;;;;;;;;179.20;2252.80;;;;;;4976949;28;19906;-79
2023/12/29 00:38:50;;;;;;;;;;;154.50;2252.80;;;;;;4976707;28;19906;-79
2023/12/29 00:41:15;;;;;;;;;;;154.50;2252.80;;;;;;4976347;28;20014;-80
2023/12/29 00:43:41;;;;;;;;;;;154.30;2252.80;;;;;;4976576;28;20308;-79
2023/12/29 00:46:08;;;;;;;;;;;154.20;2252.80;;;;;;4976388;28;19906;-80
2023/12/29 00:48:34;;;;;;;;;;;154.30;2252.80;;;;;;4976110;28;19953;-79
2023/12/29 00:51:03;;;;;;;;;;;154.50;2252.80;;;;;;4946352;28;20394;-79
2023/12/29 00:53:33;;;;;;;;;;;154.50;2252.80;;;;;;4958804;28;19978;-79
2023/12/29 00:55:59;;;;;;;;;;;179.30;2252.80;;;;;;4958474;28;19914;-80
2023/12/29 00:58:25;;;;;;;;;;;179.30;2252.80;;;;;;4958345;28;19925;-80
2023/12/29 01:00:50;;;;;;;;;;;179.40;2252.80;;;;;;4976058;28;20320;-80
2023/12/29 01:03:16;;;;;;;;;;;179.30;2252.80;;;;;;4975992;28;19918;-79
2023/12/29 01:05:41;;;;;;;;;;;179.40;2252.80;;;;;;4958688;28;20277;-80
2023/12/29 01:08:07;;;;;;;;;;;179.50;2252.80;;;;;;4958739;28;19937;-79
2023/12/29 01:10:32;;;;;;;;;;;179.50;2252.80;;;;;;4973633;28;19913;-79
2023/12/29 01:12:58;;;;;;;;;;;179.40;2252.80;;;;;;4958919;28;19917;-80
2023/12/29 01:15:24;;;;;;;;;;;179.30;2252.80;;;;;;4975860;28;20475;-80
2023/12/29 01:17:49;;;;;;;;;;;179.40;2252.80;;;;;;4958672;28;20033;-80
2023/12/29 01:20:15;;;;;;;;;;;179.30;2252.80;;;;;;4975514;28;19917;-80
2023/12/29 01:22:40;;;;;;;;;;;179.40;2252.80;;;;;;4958592;28;19918;-80
2023/12/29 01:25:06;;;;;;;;;;;179.40;2252.80;;;;;;4958153;28;19910;-80
2023/12/29 01:27:32;;;;;;;;;;;179.40;2252.80;;;;;;4974481;28;19910;-81
2023/12/29 01:29:58;;;;;;;;;;;179.50;2252.80;;;;;;4975424;28;19914;-80
2023/12/29 01:32:23;;;;;;;;;;;179.50;2252.80;;;;;;4958167;28;19914;-80
2023/12/29 01:34:49;;;;;;;;;;;179.50;2252.80;;;;;;4975570;28;19913;-79
2023/12/29 01:37:14;;;;;;;;;;;179.50;2252.80;;;;;;4958540;28;20349;-80
2023/12/29 01:39:40;;;;;;;;;;;179.40;2252.80;;;;;;4958426;28;19906;-79
2023/12/29 01:42:06;;;;;;;;;;;179.40;2252.80;;;;;;4975018;28;19937;-79
2023/12/29 01:44:32;;;;;;;;;;;179.30;2252.80;;;;;;4957960;28;20276;-79
2023/12/29 01:47:01;;;;;;;;;;;154.50;2252.80;;;;;;4957893;28;19910;-80
2023/12/29 01:49:27;;;;;;;;;;;179.30;2252.80;;;;;;4957885;28;20415;-80
2023/12/29 01:51:54;;;;;;;;;;;154.50;2252.80;;;;;;4958244;28;20004;-80
2023/12/29 01:54:20;;;;;;;;;;;154.30;2252.80;;;;;;4958083;28;20307;-80
2023/12/29 01:56:47;;;;;;;;;;;179.20;2252.80;;;;;;4958271;28;19906;-80
2023/12/29 01:59:12;;;;;;;;;;;154.10;2252.80;;;;;;4957953;28;19906;-80
2023/12/29 02:01:41;;;;;;;;;;;154.10;2252.80;;;;;;4957950;28;19948;-80
2023/12/29 02:04:06;;;;;;;;;;;154.10;2252.80;;;;;;4974745;28;19929;-79
2023/12/29 02:06:33;;;;;;;;;;;154.10;2252.80;;;;;;4958007;28;19906;-80
2023/12/29 02:08:59;;;;;;;;;;;154.10;2252.80;;;;;;4975153;28;19937;-80
2023/12/29 02:11:25;;;;;;;;;;;154.10;2252.80;;;;;;4957477;28;20360;-80
2023/12/29 02:13:51;;;;;;;;;;;154.10;2252.80;;;;;;4974372;28;19945;-80
2023/12/29 02:16:40;;;;;;;;;;;154.00;2252.80;;;;;;4957858;28;19917;-79
2023/12/29 02:19:13;;;;;;;;;;;153.90;2252.80;;;;;;4881222;29;19947;-79
2023/12/29 02:21:39;;;;;;;;;;;153.90;1971.20;;;;;;4896966;29;20510;-80
2023/12/29 02:24:04;;;;;;;;;;;153.80;2022.40;;;;;;4896358;29;19931;-79
2023/12/29 02:26:31;;;;;;;;;;;153.70;2252.80;;;;;;4896935;29;19966;-80
2023/12/29 02:28:59;;;;;;;;;;;153.60;2252.80;;;;;;4881313;29;19923;-80
2023/12/29 02:31:27;;;;;;;;;;;153.60;2252.80;;;;;;4880945;29;20360;-80
2023/12/29 02:33:53;;;;;;;;;;;128.90;2252.80;;;;;;4897048;29;19912;-80
2023/12/29 02:36:22;;;;;;;;;;;128.90;2252.80;;;;;;4896619;29;19911;-80
2023/12/29 02:38:47;;;;;;;;;;;128.90;2252.80;;;;;;4897025;29;19991;-80
2023/12/29 02:41:13;;;;;;;;;;;128.80;2252.80;;;;;;4896839;29;19960;-79
2023/12/29 02:43:39;;;;;;;;;;;128.90;2252.80;;;;;;4896548;29;19907;-79
2023/12/29 02:46:04;;;;;;;;;;;153.60;1996.80;;;;;;4881136;29;20001;-79
2023/12/29 02:48:30;;;;;;;;;;;153.60;1868.80;;;;;;4881000;29;20401;-80
2023/12/29 02:50:56;;;;;;;;;;;153.70;2252.80;;;;;;4896843;29;19943;-80
2023/12/29 02:53:21;;;;;;;;;;;153.70;2252.80;;;;;;4896887;29;19908;-80
2023/12/29 02:55:47;;;;;;;;;;;153.70;2252.80;;;;;;4922323;28;20330;-80
2023/12/29 02:58:12;;;;;;;;;;;153.70;2252.80;;;;;;4959815;28;19922;-79
2023/12/29 03:00:38;;;;;;;;;;;153.70;2252.80;;;;;;4960995;28;19914;-80
2023/12/29 03:03:04;;;;;;;;;;;128.90;2252.80;;;;;;4960745;28;19910;-79
2023/12/29 03:05:29;;;;;;;;;;;128.70;2252.80;;;;;;4961153;28;19933;-80
2023/12/29 03:07:55;;;;;;;;;;;128.70;2252.80;;;;;;4960870;28;19950;-80
2023/12/29 03:10:20;;;;;;;;;;;128.70;2252.80;;;;;;4977405;28;19961;-79
2023/12/29 03:12:46;;;;;;;;;;;128.80;2252.80;;;;;;4977788;28;19906;-79
2023/12/29 03:15:12;;;;;;;;;;;128.80;2150.40;;;;;;4960523;28;19912;-79
2023/12/29 03:17:37;;;;;;;;;;;128.90;2252.80;;;;;;4960842;28;19910;-79
2023/12/29 03:20:04;;;;;;;;;;;128.90;2252.80;;;;;;4960620;28;19906;-79
2023/12/29 03:22:30;;;;;;;;;;;128.70;1894.40;;;;;;4960509;28;19925;-80
2023/12/29 03:24:55;;;;;;;;;;;128.60;2252.80;;;;;;4960001;28;19906;-80
2023/12/29 03:27:21;;;;;;;;;;;128.60;2252.80;;;;;;4960430;28;19913;-80
2023/12/29 03:29:47;;;;;;;;;;;128.60;2099.20;;;;;;4959826;28;20416;-79
2023/12/29 03:32:12;;;;;;;;;;;128.60;2252.80;;;;;;4959928;28;19906;-79
2023/12/29 03:34:38;;;;;;;;;;;128.50;2252.80;;;;;;4977683;28;19910;-79
2023/12/29 03:37:03;;;;;;;;;;;128.50;1894.40;;;;;;4959976;28;19913;-80
2023/12/29 03:39:29;;;;;;;;;;;128.40;2176.00;;;;;;4960516;28;19906;-80
2023/12/29 03:41:55;;;;;;;;;;;128.50;2252.80;;;;;;4960342;28;19937;-80
2023/12/29 03:44:21;;;;;;;;;;;128.50;2252.80;;;;;;4977819;28;19914;-80
2023/12/29 03:46:46;;;;;;;;;;;128.50;2252.80;;;;;;4960619;28;19906;-79
2023/12/29 03:49:12;;;;;;;;;;;128.60;2252.80;;;;;;4968866;28;19922;-79
2023/12/29 03:51:38;;;;;;;;;;;128.70;2252.80;;;;;;5000277;28;19894;-79
2023/12/29 03:54:03;;;;;;;;;;;128.60;2099.20;;;;;;4988271;28;19918;-80
2023/12/29 03:56:29;;;;;;;;;;;128.60;2201.60;;;;;;4960345;28;20376;-79
2023/12/29 03:58:55;;;;;;;;;;;128.70;2252.80;;;;;;4977033;28;19950;-79
2023/12/29 04:01:20;;;;;;;;;;;128.80;2150.40;;;;;;4977341;28;20260;-79
2023/12/29 04:03:46;;;;;;;;;;;128.90;2252.80;;;;;;4976753;28;20283;-80
2023/12/29 04:06:11;;;;;;;;;;;153.70;2252.80;;;;;;4977102;28;19996;-79
2023/12/29 04:08:37;;;;;;;;;;;153.70;2073.60;;;;;;4976751;28;20433;-79
2023/12/29 04:11:03;;;;;;;;;;;153.80;2252.80;;;;;;4960394;28;19906;-79
2023/12/29 04:13:29;;;;;;;;;;;153.80;2124.80;;;;;;4976733;28;19913;-80
2023/12/29 04:15:55;;;;;;;;;;;153.80;1920.00;;;;;;4976868;28;20279;-79
2023/12/29 04:18:21;;;;;;;;;;;153.90;2176.00;;;;;;4959696;28;20286;-80
2023/12/29 04:20:47;;;;;;;;;;;154.10;2252.80;;;;;;4976976;28;20316;-79
2023/12/29 04:23:13;;;;;;;;;;;154.10;2252.80;;;;;;4976337;28;20013;-79
2023/12/29 04:25:39;;;;;;;;;;;154.30;2252.80;;;;;;4976301;28;19994;-80
2023/12/29 04:28:04;;;;;;;;;;;154.20;2252.80;;;;;;4976817;28;20008;-79
2023/12/29 04:30:30;;;;;;;;;;;154.20;2252.80;;;;;;4977000;28;19906;-79
2023/12/29 04:32:55;;;;;;;;;;;154.20;2252.80;;;;;;4976206;28;20006;-79
2023/12/29 04:35:21;;;;;;;;;;;154.00;2252.80;;;;;;4958895;28;19910;-79
2023/12/29 04:37:47;;;;;;;;;;;154.00;2252.80;;;;;;4976187;28;20348;-79
2023/12/29 04:40:12;;;;;;;;;;;153.80;2252.80;;;;;;4975585;28;19906;-79
2023/12/29 04:42:38;;;;;;;;;;;153.90;2252.80;;;;;;4959205;28;19957;-80
2023/12/29 04:45:04;;;;;;;;;;;153.80;2252.80;;;;;;4959239;28;19906;-80
2023/12/29 04:47:30;;;;;;;;;;;153.80;2252.80;;;;;;4956251;28;19913;-80
2023/12/29 04:49:56;;;;;;;;;;;153.90;2252.80;;;;;;4959016;28;20296;-80
2023/12/29 04:52:21;;;;;;;;;;;153.80;2252.80;;;;;;4958948;28;19906;-80
2023/12/29 04:54:47;;;;;;;;;;;153.80;2252.80;;;;;;4958888;28;19906;-80
2023/12/29 04:57:12;;;;;;;;;;;153.90;2252.80;;;;;;4958677;28;19953;-80
2023/12/29 04:59:38;;;;;;;;;;;153.80;2252.80;;;;;;4975899;28;19910;-80
2023/12/29 05:02:04;;;;;;;;;;;153.70;2252.80;;;;;;4958395;28;19928;-80
2023/12/29 05:04:30;;;;;;;;;;;153.90;2252.80;;;;;;4950714;28;19953;-80
2023/12/29 05:06:56;;;;;;;;;;;153.80;2252.80;;;;;;4953474;28;19985;-79
2023/12/29 05:09:22;;;;;;;;;;;153.80;2252.80;;;;;;4959036;28;20013;-80
2023/12/29 05:11:48;;;;;;;;;;;153.60;2252.80;;;;;;4958636;28;20379;-79
2023/12/29 05:14:13;;;;;;;;;;;128.90;2252.80;;;;;;4958547;28;19906;-80
2023/12/29 05:16:39;;;;;;;;;;;128.90;2252.80;;;;;;4958734;28;19929;-80
2023/12/29 05:19:05;;;;;;;;;;;128.80;2252.80;;;;;;4958672;28;19910;-80
2023/12/29 05:21:30;;;;;;;;;;;128.70;2252.80;;;;;;4956675;28;19973;-79
2023/12/29 05:23:56;;;;;;;;;;;128.70;2252.80;;;;;;4958673;28;19925;-80
2023/12/29 05:26:22;;;;;;;;;;;128.60;2252.80;;;;;;4975425;28;19993;-80
2023/12/29 05:28:47;;;;;;;;;;;128.50;2252.80;;;;;;4958435;28;20049;-80
2023/12/29 05:31:13;;;;;;;;;;;128.40;2099.20;;;;;;4973478;28;19910;-79
2023/12/29 05:33:38;;;;;;;;;;;128.40;2048.00;;;;;;4955995;28;19918;-79
2023/12/29 05:36:08;;;;;;;;;;;128.40;2252.80;;;;;;4975435;28;19906;-79
2023/12/29 05:38:35;;;;;;;;;;;128.50;2252.80;;;;;;4956949;28;19906;-80
2023/12/29 05:41:04;;;;;;;;;;;128.60;2252.80;;;;;;4958166;28;19957;-80
2023/12/29 05:43:33;;;;;;;;;;;128.70;2252.80;;;;;;4957839;28;19910;-80
2023/12/29 05:45:59;;;;;;;;;;;128.80;2252.80;;;;;;4971105;28;19909;-80
2023/12/29 05:48:25;;;;;;;;;;;128.70;2252.80;;;;;;4957475;28;20299;-80
2023/12/29 05:50:51;;;;;;;;;;;128.80;2252.80;;;;;;4975253;28;20407;-79
2023/12/29 05:53:16;;;;;;;;;;;128.80;2252.80;;;;;;4957813;28;19914;-80
2023/12/29 05:55:43;;;;;;;;;;;128.70;2252.80;;;;;;4974581;28;19906;-79
2023/12/29 05:58:09;;;;;;;;;;;128.70;2252.80;;;;;;4963840;28;19932;-80
2023/12/29 06:00:36;;;;;;;;;;;128.60;2252.80;;;;;;4972080;28;20356;-79
2023/12/29 06:03:04;;;;;;;;;;;128.60;2252.80;;;;;;4973571;28;19969;-79
2023/12/29 06:05:29;;;;;;;;;;;128.50;2252.80;;;;;;4974417;28;20000;-79
2023/12/29 06:07:55;;;;;;;;;;;128.40;2252.80;;;;;;4974013;28;20061;-79
2023/12/29 06:10:21;;;;;;;;;;;128.50;1971.20;;;;;;4974795;28;19949;-80
2023/12/29 06:12:46;;;;;;;;;;;128.40;2252.80;;;;;;4973541;28;19997;-78
2023/12/29 06:15:13;;;;;;;;;;;128.40;2252.80;;;;;;4974933;28;19910;-80
2023/12/29 06:17:40;;;;;;;;;;;128.40;2252.80;;;;;;4973463;28;19910;-79
2023/12/29 06:20:07;;;;;;;;;;;128.30;2252.80;;;;;;4951115;28;20262;-79
2023/12/29 06:22:33;;;;;;;;;;;128.20;2252.80;;;;;;4972478;28;19924;-79
2023/12/29 06:24:58;;;;;;;;;;;128.20;2252.80;;;;;;4969827;28;19996;-79
2023/12/29 06:27:25;;;;;;;;;;;128.30;2252.80;;;;;;4974269;28;20378;-79
2023/12/29 06:29:50;;;;;;;;;;;128.20;2252.80;;;;;;4957062;28;19921;-78
2023/12/29 06:32:16;;;;;;;;;;;128.30;2252.80;;;;;;4954390;28;19918;-79
2023/12/29 06:34:41;;;;;;;;;;;128.30;2252.80;;;;;;4977917;28;20412;-78
2023/12/29 06:37:07;;;;;;;;;;;128.40;2252.80;;;;;;4961171;28;20001;-79
2023/12/29 06:39:33;;;;;;;;;;;128.50;2252.80;;;;;;4977618;28;19965;-77
2023/12/29 06:41:58;;;;;;;;;;;128.20;2252.80;;;;;;4960676;28;19914;-79
2023/12/29 06:44:24;;;;;;;;;;;128.20;1920.00;;;;;;4976797;28;19906;-80
2023/12/29 06:46:49;;;;;;;;;;;128.20;1945.60;;;;;;4977298;28;20249;-78
2023/12/29 06:49:15;;;;;;;;;;;128.30;2099.20;;;;;;4959986;28;19933;-79
2023/12/29 06:51:41;;;;;;;;;;;128.50;2252.80;;;;;;4975621;28;20012;-79
2023/12/29 06:54:06;;;;;;;;;;;128.50;2252.80;;;;;;4972205;28;19916;-79
2023/12/29 06:56:32;;;;;;;;;;;128.50;2252.80;;;;;;4977151;28;19910;-78
2023/12/29 06:58:58;;;;;;;;;;;128.70;2252.80;;;;;;4960828;28;20036;-79
2023/12/29 07:01:24;;;;;;;;;;;128.60;2252.80;;;;;;4960419;28;20275;-78
2023/12/29 07:03:50;;;;;;;;;;;128.40;2252.80;;;;;;4958815;28;19914;-79
2023/12/29 07:06:15;;;;;;;;;;;128.40;2252.80;;;;;;4960570;28;19912;-80
2023/12/29 07:08:41;;;;;;;;;;;128.50;2252.80;;;;;;4960062;28;20008;-77
2023/12/29 07:11:11;;;;;;;;;;;128.60;2252.80;;;;;;4961101;28;20033;-78
2023/12/29 07:13:37;;;;;;;;;;;128.70;2252.80;;;;;;4981859;28;19906;-77
2023/12/29 07:16:02;;;;;;;;;;;128.80;2252.80;;;;;;4980708;28;19890;-80
2023/12/29 07:18:28;;;;;;;;;;;128.90;2252.80;;;;;;4959643;28;19909;-79
2023/12/29 07:20:54;;;;;;;;;;;128.90;2252.80;;;;;;4959484;28;19937;-78
2023/12/29 07:23:19;;;;;;;;;;;128.90;2252.80;;;;;;4954897;28;19973;-78
2023/12/29 07:25:45;;;;;;;;;;;128.90;2252.80;;;;;;4955660;28;20360;-79
2023/12/29 07:28:10;;;;;;;;;;;128.90;2252.80;;;;;;4976952;28;19961;-80
2023/12/29 07:30:36;;;;;;;;;;;128.90;2252.80;;;;;;4959823;28;19905;-79
2023/12/29 07:33:02;;;;;;;;;;;153.60;2252.80;;;;;;4959255;28;19914;-80
2023/12/29 07:35:28;;;;;;;;;;;153.80;2252.80;;;;;;4975625;28;19912;-79
2023/12/29 07:37:53;;;;;;;;;;;153.80;2252.80;;;;;;4977121;28;19906;-79
2023/12/29 07:40:19;;;;;;;;;;;153.90;2252.80;;;;;;4975831;28;19910;-78
2023/12/29 07:42:46;;;;;;;;;;;153.80;2252.80;;;;;;4973754;28;19942;-77
2023/12/29 07:45:12;;;;;;;;;;;154.00;2252.80;;;;;;4958658;28;19906;-82
2023/12/29 07:47:37;;;;;;;;;;;154.00;2252.80;;;;;;4956996;28;19913;-77
2023/12/29 07:50:04;;;;;;;;;;;154.20;2252.80;;;;;;4975371;28;19960;-77
2023/12/29 07:52:30;;;;;;;;;;;154.10;2252.80;;;;;;4961940;28;19906;-78
2023/12/29 07:54:55;;;;;;;;;;;154.20;2252.80;;;;;;4959039;28;19960;-77
2023/12/29 07:57:21;;;;;;;;;;;154.10;2252.80;;;;;;4975458;28;19914;-78
2023/12/29 07:59:47;;;;;;;;;;;154.10;2252.80;;;;;;4975911;28;19906;-78
2023/12/29 08:02:12;;;;;;;;;;;154.00;2252.80;;;;;;4976095;28;19916;-78
2023/12/29 08:04:38;;;;;;;;;;;154.00;2252.80;;;;;;4958583;28;19914;-79
2023/12/29 08:07:04;;;;;;;;;;;154.10;2252.80;;;;;;4959234;28;19997;-81
2023/12/29 08:09:30;;;;;;;;;;;154.10;2252.80;;;;;;4959101;28;19914;-79
2023/12/29 08:11:55;;;;;;;;;;;154.10;2252.80;;;;;;4958848;28;20009;-76
2023/12/29 08:14:21;;;;;;;;;;;154.10;2252.80;;;;;;4974652;28;19945;-78
2023/12/29 08:16:47;;;;;;;;;;;154.10;2252.80;;;;;;4958460;28;20358;-79
2023/12/29 08:19:14;;;;;;;;;;;154.30;2252.80;;;;;;4958799;28;20403;-79
2023/12/29 08:21:40;;;;;;;;;;;154.30;2252.80;;;;;;4958750;28;20009;-77
2023/12/29 08:24:06;;;;;;;;;;;154.50;2252.80;;;;;;4958664;28;20435;-81
2023/12/29 08:26:31;;;;;;;;;;;179.20;2252.80;;;;;;4958185;28;19940;-77
2023/12/29 08:28:57;;;;;;;;;;;179.30;2252.80;;;;;;4950685;28;19993;-77
2023/12/29 08:31:23;;;;;;;;;;;179.40;2252.80;;;;;;4958578;28;19976;-75
2023/12/29 08:33:48;;;;;;;;;;;180.00;2252.80;;;;;;4955586;28;19929;-76
2023/12/29 08:36:17;;;;;;;;;;;179.60;2252.80;;;;;;4958499;28;19913;-77
2023/12/29 08:38:43;;;;;;;;;;;179.70;2252.80;;;;;;4958209;28;20355;-79
2023/12/29 08:41:09;;;;;;;;;;;179.80;2252.80;;;;;;4958028;28;19910;-77
2023/12/29 08:43:36;;;;;;;;;;;179.90;2252.80;;;;;;4957973;28;19921;-80
2023/12/29 08:46:01;;;;;;;;;;;180.00;2252.80;;;;;;4957993;28;19952;-78
2023/12/29 08:48:27;;;;;;;;;;;180.00;2252.80;;;;;;4958289;28;20395;-78
2023/12/29 08:50:53;;;;;;;;;;;180.00;2252.80;;;;;;4957560;28;19912;-79
2023/12/29 08:53:18;;;;;;;;;;;180.10;2252.80;;;;;;4958083;28;19933;-81
2023/12/29 08:55:44;;;;;;;;;;;180.10;2252.80;;;;;;4957764;28;19906;-80
2023/12/29 08:58:10;;;;;;;;;;;204.90;2252.80;;;;;;4957991;28;20460;-78
2023/12/29 09:00:36;;;;;;;;;;;205.20;2252.80;;;;;;4958297;28;19906;-80
2023/12/29 09:03:03;;;;;;;;;;;230.80;2252.80;;;;;;4958180;28;20009;-81
2023/12/29 09:05:28;;;;;;;;;;;205.40;2252.80;;;;;;4958639;28;19945;-78
2023/12/29 09:07:54;;;;;;;;;;;205.50;2252.80;;;;;;4958031;28;19949;-80
2023/12/29 09:10:21;;;;;;;;;;;205.60;2252.80;;;;;;4958204;28;20528;-79
2023/12/29 09:12:46;;;;;;;;;;;205.70;2252.80;;;;;;4957440;28;19928;-77
2023/12/29 09:15:12;;;;;;;;;;;230.40;2252.80;;;;;;4974875;28;20312;-77
2023/12/29 09:17:38;;;;;;;;;;;230.50;2252.80;;;;;;4957777;28;19910;-78
2023/12/29 09:20:03;;;;;;;;;;;230.60;2252.80;;;;;;4956957;28;19906;-79
2023/12/29 09:22:29;;;;;;;;;;;230.60;2252.80;;;;;;4959578;28;19918;-78
2023/12/29 09:24:55;;;;;;;;;;;230.80;2252.80;;;;;;4974639;28;19917;-77
2023/12/29 09:27:21;;;;;;;;;;;230.90;2252.80;;;;;;4957244;28;19910;-79
2023/12/29 09:29:46;;;;;;;;;;;230.80;2252.80;;;;;;4955522;28;19914;-78
2023/12/29 09:32:12;;;;;;;;;;;230.90;2252.80;;;;;;4957227;28;19952;-78
2023/12/29 09:34:38;;;;;;;;;;;231.00;2252.80;;;;;;4956938;28;19993;-81
2023/12/29 09:37:03;;;;;;;;;;;231.10;2252.80;;;;;;4957892;28;20045;-80
2023/12/29 09:39:29;;;;;;;;;;;256.20;2252.80;;;;;;4957844;28;19913;-79
2023/12/29 09:41:57;;;;;;;;;;;256.10;2252.80;;;;;;4955477;28;19914;-79
2023/12/29 09:44:23;;;;;;;;;;;256.30;2252.80;;;;;;4956828;28;19906;-78
2023/12/29 09:46:49;;;;;;;;;;;256.50;2252.80;;;;;;4957400;28;19969;-77
2023/12/29 09:49:16;;;;;;;;;;;256.40;2252.80;;;;;;4973999;28;19914;-83
2023/12/29 09:51:42;;;;;;;;;;;256.50;2252.80;;;;;;4969735;28;19907;-77
2023/12/29 09:54:08;;;;;;;;;;;256.50;2252.80;;;;;;4956858;28;19961;-78
2023/12/29 09:56:34;;;;;;;;;;;256.50;2252.80;;;;;;4974606;28;19906;-80
2023/12/29 09:59:01;;;;;;;;;;;256.70;2252.80;;;;;;4957450;28;19912;-78
2023/12/29 10:01:29;;;;;;;;;;;256.80;2252.80;;;;;;4957893;28;19906;-78
2023/12/29 10:03:55;;;;;;;;;;;281.60;2278.40;;;;;;4974420;28;19913;-80
2023/12/29 10:06:23;;;;;;;;;;;281.60;2278.40;;;;;;4957534;28;19906;-79
2023/12/29 10:08:49;;;;;;;;;;;281.60;2278.40;;;;;;4978358;28;20017;-77
2023/12/29 10:11:20;;;;;;;;;;;281.60;2278.40;;;;;;4974897;28;19912;-80
2023/12/29 10:13:50;;;;;;;;;;;256.90;2252.80;;;;;;4977249;28;19906;-79
2023/12/29 10:16:27;;;;;;;;;;;281.60;2278.40;;;;;;4979171;28;19972;-80
2023/12/29 10:18:52;;;;;;;;;;;256.90;2252.80;;;;;;4961189;28;19946;-80
2023/12/29 10:21:21;;;;;;;;;;;281.70;2278.40;;;;;;4968644;28;19917;-78
2023/12/29 10:23:53;;;;;;;;;;;281.80;2278.40;;;;;;4961911;28;20273;-81
2023/12/29 10:26:18;;;;;;;;;;;281.90;2278.40;;;;;;4978128;28;19910;-79
2023/12/29 10:28:47;;;;;;;;;;;282.00;2278.40;;;;;;4978707;28;19921;-76
2023/12/29 10:31:16;;;;;;;;;;;282.10;2278.40;;;;;;4957843;28;19917;-79
2023/12/29 10:33:42;;;;;;;;;;;282.00;2278.40;;;;;;4964347;28;19946;-75
2023/12/29 10:36:08;;;;;;;;;;;282.10;2278.40;;;;;;4982509;28;19961;-75
2023/12/29 10:38:34;;;;;;;;;;;282.10;2278.40;;;;;;4973333;28;19981;-75
2023/12/29 10:41:17;;;;;;;;;;;282.00;2278.40;;;;;;4979891;28;19929;-79
2023/12/29 10:43:43;;;;;;;;;;;282.00;2278.40;;;;;;4976622;28;19910;-75
2023/12/29 10:46:10;;;;;;;;;;;282.20;2278.40;;;;;;4977369;28;20343;-78
2023/12/29 10:48:36;;;;;;;;;;;282.10;2278.40;;;;;;4959758;28;19910;-75
2023/12/29 10:51:04;;;;;;;;;;;307.20;2304.00;;;;;;4959735;28;19912;-76
2023/12/29 10:53:30;;;;;;;;;;;282.20;2278.40;;;;;;4960166;28;19932;-78
2023/12/29 10:55:55;;;;;;;;;;;282.30;2278.40;;;;;;4960227;28;19906;-77
2023/12/29 10:58:21;;;;;;;;;;;282.40;2278.40;;;;;;4960008;28;20323;-80
2023/12/29 11:00:47;;;;;;;;;;;282.40;2278.40;;;;;;4960147;28;19975;-78
2023/12/29 11:03:14;;;;;;;;;;;282.50;2278.40;;;;;;4977244;28;20312;-78
2023/12/29 11:05:40;;;;;;;;;;;307.30;2304.00;;;;;;4960402;28;19953;-77
2023/12/29 11:08:14;;;;;;;;;;;307.30;2304.00;;;;;;4977486;28;19914;-79
2023/12/29 11:10:40;;;;;;;;;;;307.30;2304.00;;;;;;4959854;28;20348;-78
2023/12/29 11:13:06;;;;;;;;;;;307.40;2304.00;;;;;;4958831;28;19910;-80
2023/12/29 11:15:32;;;;;;;;;;;307.50;2304.00;;;;;;4958246;28;20405;-80
2023/12/29 11:17:59;;;;;;;;;;;307.60;2304.00;;;;;;4958123;28;19965;-78
2023/12/29 11:20:26;;;;;;;;;;;307.60;2304.00;;;;;;4957662;28;19977;-78
2023/12/29 11:22:51;;;;;;;;;;;307.60;2304.00;;;;;;4959338;28;19957;-76
2023/12/29 11:25:17;;;;;;;;;;;307.50;2304.00;;;;;;4958591;28;19940;-76
2023/12/29 11:27:43;;;;;;;;;;;307.60;2304.00;;;;;;4959458;28;20001;-78
2023/12/29 11:30:11;;;;;;;;;;;307.50;2304.00;;;;;;4959668;28;19973;-77
2023/12/29 11:32:42;;;;;;;;;;;307.50;2304.00;;;;;;4958369;28;19906;-78
2023/12/29 11:35:13;;;;;;;;;;;307.50;2304.00;;;;;;4956486;29;19913;-77
2023/12/29 11:38:02;;;;;;;;;;;307.50;2304.00;;;;;;4954554;28;20033;-78
2023/12/29 11:40:36;;;;;;;;;;;307.60;2304.00;;;;;;4951069;28;19917;-78
2023/12/29 11:43:06;;;;;;;;;;;307.70;2304.00;;;;;;4958626;28;19965;-77
2023/12/29 11:45:36;;;;;;;;;;;307.80;2304.00;;;;;;4959440;28;19920;-78
2023/12/29 11:48:02;;;;;;;;;;;307.90;2304.00;;;;;;4976626;28;19916;-81
2023/12/29 11:50:29;;;;;;;;;;;;;;;;;;4968095;28;20440;-78
2023/12/29 11:52:55;;;;;;;;;;;;;;;;;;4959355;28;19965;-81
2023/12/29 11:55:21;;;;;;;;;;;;;;;;;;4975242;28;19921;-78
2023/12/29 11:57:47;;;;;;;;;;;;;;;;;;4973666;28;19910;-80
2023/12/29 12:00:13;;;;;;;;;;;;;;;;;;4976373;28;20359;-79
2023/12/29 12:02:38;;;;;;;;;;;308.10;2304.00;;;;;;4947421;28;19960;-79
2023/12/29 12:05:04;;;;;;;;;;;308.10;2304.00;;;;;;4958938;28;19906;-80
2023/12/29 12:07:31;;;;;;;;;;;308.10;2304.00;;;;;;4955490;29;19907;-78
2023/12/29 12:10:16;;;;;;;;;;;308.10;2304.00;;;;;;4972305;28;20356;-80
2023/12/29 12:12:42;;;;;;;;;;;308.00;2304.00;;;;;;4955396;28;19957;-78
2023/12/29 12:15:26;;;;;;;;;;;308.00;2304.00;;;;;;4972281;28;19906;-77
2023/12/29 12:17:53;;;;;;;;;;;308.00;2304.00;;;;;;4974258;28;20012;-83
2023/12/29 12:20:18;;;;;;;;;;;307.90;2304.00;;;;;;4974159;28;19913;-84
2023/12/29 12:22:45;;;;;;;;;;;307.90;2304.00;;;;;;4976004;28;19918;-79
2023/12/29 12:25:12;;;;;;;;;;;307.90;2304.00;;;;;;4954690;28;19905;-80
2023/12/29 12:27:38;;;;;;;;;;;307.90;2304.00;;;;;;4975894;28;19950;-78
2023/12/29 12:30:18;;;;;;;;;;;307.80;2304.00;;;;;;4974078;28;19950;-79
2023/12/29 12:32:46;;;;;;;;;;;307.80;2304.00;;;;;;4975735;28;19906;-78
2023/12/29 12:35:16;;;;;;;;;;;307.80;2304.00;;;;;;4947432;28;19950;-78
2023/12/29 12:37:42;;;;;;;;;;;307.90;2304.00;;;;;;4954714;28;19910;-84
2023/12/29 12:40:08;;;;;;;;;;;307.80;2304.00;;;;;;4973179;28;19906;-77
2023/12/29 12:42:38;;;;;;;;;;;307.80;2304.00;;;;;;4971862;28;19906;-79
2023/12/29 12:45:11;;;;;;;;;;;307.80;2304.00;;;;;;4957962;28;19910;-79
2023/12/29 12:47:44;;;;;;;;;;;307.70;2304.00;;;;;;4956152;28;19910;-79
2023/12/29 12:50:12;;;;;;;;;;;307.70;2304.00;;;;;;4958222;28;19914;-80
2023/12/29 12:52:38;;;;;;;;;;;307.80;2304.00;;;;;;4956228;28;19906;-78
2023/12/29 12:55:05;;;;;;;;;;;307.80;2304.00;;;;;;4975771;28;20299;-77
2023/12/29 12:57:30;;;;;;;;;;;307.70;2304.00;;;;;;4975091;28;20359;-78
2023/12/29 12:59:56;;;;;;;;;;;307.70;2304.00;;;;;;4949452;28;19910;-80
2023/12/29 13:02:23;;;;;;;;;;;307.80;2304.00;;;;;;4957548;28;19914;-78
2023/12/29 13:04:50;;;;;;;;;;;307.80;2304.00;;;;;;4956079;28;20000;-80
2023/12/29 13:07:17;;;;;;;;;;;307.70;2304.00;;;;;;4956190;28;19913;-79
2023/12/29 13:09:43;;;;;;;;;;;307.80;2304.00;;;;;;4957640;28;19961;-78
2023/12/29 13:12:10;;;;;;;;;;;307.70;2304.00;;;;;;4974945;28;19965;-81
2023/12/29 13:14:35;;;;;;;;;;;307.80;2304.00;;;;;;4957304;28;20010;-77
2023/12/29 13:17:05;;;;;;;;;;;307.70;2304.00;;;;;;4974687;28;19917;-79
2023/12/29 13:19:30;;;;;;;;;;;307.70;2304.00;;;;;;4957432;28;19910;-81
2023/12/29 13:21:56;;;;;;;;;;;307.70;2304.00;;;;;;4966447;28;20291;-77
2023/12/29 13:24:23;;;;;;;;;;;307.70;2304.00;;;;;;4956216;28;20017;-82
2023/12/29 13:26:52;;;;;;;;;;;307.70;2304.00;;;;;;4957545;28;19910;-82
2023/12/29 13:29:21;;;;;;;;;;;307.70;2304.00;;;;;;4967876;28;19914;-85
2023/12/29 13:31:52;;;;;;;;;;;307.70;2304.00;;;;;;4952486;29;20344;-80
2023/12/29 13:34:20;;;;;;;;;;;307.70;2304.00;;;;;;4974162;28;20384;-83
2023/12/29 13:36:49;;;;;;;;;;;307.70;2304.00;;;;;;4975371;28;19910;-80
2023/12/29 13:39:27;;;;;;;;;;;307.60;2304.00;;;;;;4957757;28;20398;-80